sensor_id;sensor_type;location;lat;lon;timestamp;pressure;altitude;pressure_sealevel;temperature;humidity
62708;BME280;48769;51.624;5.886;2023-04-02T00:08:50;100880.94;;;7.29;100.00
62708;BME280;48769;51.624;5.886;2023-04-02T00:11:28;100893.13;;;7.30;100.00
62708;BME280;48769;51.624;5.886;2023-04-02T00:13:59;100898.31;;;7.31;100.00
62708;BME280;48769;51.624;5.886;2023-04-02T00:16:25;100906.50;;;7.23;100.00
62708;BME280;48769;51.624;5.886;2023-04-02T00:18:53;100907.44;;;7.22;100.00
62708;BME280;48769;51.624;5.886;2023-04-02T00:21:25;100905.56;;;7.24;100.00
62708;BME280;48769;51.624;5.886;2023-04-02T00:23:53;100918.72;;;7.24;100.00
62708;BME280;48769;51.624;5.886;2023-04-02T00:26:32;100926.50;;;7.28;100.00
62708;BME280;48769;51.624;5.886;2023-04-02T00:29:03;100922.97;;;7.29;100.00
62708;BME280;48769;51.624;5.886;2023-04-02T00:31:29;100916.22;;;7.21;100.00
62708;BME280;48769;51.624;5.886;2023-04-02T00:33:57;100931.22;;;7.18;100.00
62708;BME280;48769;51.624;5.886;2023-04-02T00:36:24;100922.34;;;7.22;100.00
62708;BME280;48769;51.624;5.886;2023-04-02T00:38:52;100933.69;;;7.22;100.00
62708;BME280;48769;51.624;5.886;2023-04-02T00:41:22;100935.41;;;7.23;100.00
62708;BME280;48769;51.624;5.886;2023-04-02T00:43:48;100933.91;;;7.16;100.00
62708;BME280;48769;51.624;5.886;2023-04-02T00:46:20;100944.53;;;7.13;100.00
62708;BME280;48769;51.624;5.886;2023-04-02T00:54:58;100963.72;;;6.90;100.00
62708;BME280;48769;51.624;5.886;2023-04-02T00:57:25;100967.91;;;6.96;100.00
62708;BME280;48769;51.624;5.886;2023-04-02T01:00:09;100973.16;;;6.96;100.00
62708;BME280;48769;51.624;5.886;2023-04-02T01:02:40;100972.16;;;7.00;100.00
62708;BME280;48769;51.624;5.886;2023-04-02T01:13:32;100989.44;;;6.81;100.00
62708;BME280;48769;51.624;5.886;2023-04-02T01:21:54;101008.63;;;6.83;100.00
62708;BME280;48769;51.624;5.886;2023-04-02T01:24:23;101006.91;;;6.82;100.00
62708;BME280;48769;51.624;5.886;2023-04-02T01:26:59;101014.00;;;6.79;100.00
62708;BME280;48769;51.624;5.886;2023-04-02T01:29:35;101018.16;;;6.85;100.00
62708;BME280;48769;51.624;5.886;2023-04-02T01:32:05;101025.38;;;6.78;100.00
62708;BME280;48769;51.624;5.886;2023-04-02T01:34:32;101030.88;;;6.71;100.00
62708;BME280;48769;51.624;5.886;2023-04-02T01:42:34;101034.63;;;6.64;100.00
62708;BME280;48769;51.624;5.886;2023-04-02T01:45:11;101046.06;;;6.61;100.00
62708;BME280;48769;51.624;5.886;2023-04-02T01:47:38;101049.53;;;6.63;100.00
62708;BME280;48769;51.624;5.886;2023-04-02T01:50:22;101051.53;;;6.55;100.00
62708;BME280;48769;51.624;5.886;2023-04-02T01:52:50;101060.13;;;6.60;100.00
62708;BME280;48769;51.624;5.886;2023-04-02T01:55:20;101049.72;;;6.57;100.00
62708;BME280;48769;51.624;5.886;2023-04-02T01:57:50;101064.81;;;6.49;100.00
62708;BME280;48769;51.624;5.886;2023-04-02T02:00:18;101065.16;;;6.38;100.00
62708;BME280;48769;51.624;5.886;2023-04-02T02:02:49;101078.13;;;6.43;100.00
62708;BME280;48769;51.624;5.886;2023-04-02T02:05:18;101078.91;;;6.46;100.00
62708;BME280;48769;51.624;5.886;2023-04-02T02:07:45;101077.84;;;6.52;100.00
62708;BME280;48769;51.624;5.886;2023-04-02T02:10:25;101086.66;;;6.51;100.00
62708;BME280;48769;51.624;5.886;2023-04-02T02:12:50;101097.16;;;6.51;100.00
62708;BME280;48769;51.624;5.886;2023-04-02T02:15:19;101099.09;;;6.44;100.00
62708;BME280;48769;51.624;5.886;2023-04-02T02:17:45;101108.84;;;6.41;100.00
62708;BME280;48769;51.624;5.886;2023-04-02T02:20:12;101118.41;;;6.42;100.00
62708;BME280;48769;51.624;5.886;2023-04-02T02:22:48;101122.81;;;6.41;100.00
62708;BME280;48769;51.624;5.886;2023-04-02T02:25:20;101128.84;;;6.43;100.00
62708;BME280;48769;51.624;5.886;2023-04-02T02:27:53;101129.94;;;6.36;100.00
62708;BME280;48769;51.624;5.886;2023-04-02T02:30:25;101135.97;;;6.40;100.00
62708;BME280;48769;51.624;5.886;2023-04-02T02:33:16;101133.25;;;6.43;100.00
62708;BME280;48769;51.624;5.886;2023-04-02T02:36:02;101144.91;;;6.32;100.00
62708;BME280;48769;51.624;5.886;2023-04-02T02:41:11;101151.69;;;6.40;100.00
62708;BME280;48769;51.624;5.886;2023-04-02T02:43:40;101157.94;;;6.37;100.00
62708;BME280;48769;51.624;5.886;2023-04-02T02:46:12;101156.09;;;6.39;100.00
62708;BME280;48769;51.624;5.886;2023-04-02T02:48:41;101159.72;;;6.35;100.00
62708;BME280;48769;51.624;5.886;2023-04-02T02:51:17;101166.91;;;6.28;100.00
62708;BME280;48769;51.624;5.886;2023-04-02T02:53:48;101178.50;;;6.21;100.00
62708;BME280;48769;51.624;5.886;2023-04-02T02:56:15;101169.75;;;6.21;100.00
62708;BME280;48769;51.624;5.886;2023-04-02T02:58:41;101192.22;;;6.29;100.00
62708;BME280;48769;51.624;5.886;2023-04-02T03:01:07;101182.06;;;6.17;100.00
62708;BME280;48769;51.624;5.886;2023-04-02T03:03:33;101197.91;;;6.14;100.00
62708;BME280;48769;51.624;5.886;2023-04-02T03:06:02;101197.03;;;6.14;100.00
62708;BME280;48769;51.624;5.886;2023-04-02T03:11:48;101209.44;;;6.08;100.00
62708;BME280;48769;51.624;5.886;2023-04-02T03:14:28;101217.34;;;6.07;100.00
62708;BME280;48769;51.624;5.886;2023-04-02T03:17:01;101222.50;;;6.10;100.00
62708;BME280;48769;51.624;5.886;2023-04-02T03:19:34;101223.72;;;5.97;100.00
62708;BME280;48769;51.624;5.886;2023-04-02T03:22:12;101232.44;;;5.99;100.00
62708;BME280;48769;51.624;5.886;2023-04-02T03:24:57;101226.34;;;5.97;100.00
62708;BME280;48769;51.624;5.886;2023-04-02T03:27:28;101234.22;;;5.97;100.00
62708;BME280;48769;51.624;5.886;2023-04-02T03:32:47;101243.78;;;5.99;100.00
62708;BME280;48769;51.624;5.886;2023-04-02T03:35:27;101250.94;;;5.93;100.00
62708;BME280;48769;51.624;5.886;2023-04-02T03:38:30;101257.75;;;6.00;100.00
62708;BME280;48769;51.624;5.886;2023-04-02T03:41:25;101264.78;;;5.98;100.00
62708;BME280;48769;51.624;5.886;2023-04-02T03:43:57;101277.88;;;5.98;100.00
62708;BME280;48769;51.624;5.886;2023-04-02T03:46:30;101276.16;;;5.98;100.00
62708;BME280;48769;51.624;5.886;2023-04-02T03:49:00;101282.28;;;5.97;100.00
62708;BME280;48769;51.624;5.886;2023-04-02T03:51:31;101283.06;;;6.01;100.00
62708;BME280;48769;51.624;5.886;2023-04-02T03:53:58;101288.38;;;5.98;100.00
62708;BME280;48769;51.624;5.886;2023-04-02T03:56:32;101306.84;;;5.95;100.00
62708;BME280;48769;51.624;5.886;2023-04-02T03:59:33;101308.66;;;5.90;100.00
62708;BME280;48769;51.624;5.886;2023-04-02T04:04:51;101316.75;;;5.80;100.00
62708;BME280;48769;51.624;5.886;2023-04-02T04:07:39;101329.22;;;5.71;100.00
62708;BME280;48769;51.624;5.886;2023-04-02T04:10:07;101344.09;;;5.70;100.00
62708;BME280;48769;51.624;5.886;2023-04-02T04:12:47;101340.88;;;5.59;100.00
62708;BME280;48769;51.624;5.886;2023-04-02T04:15:26;101344.38;;;5.58;100.00
62708;BME280;48769;51.624;5.886;2023-04-02T04:21:01;101368.72;;;5.63;100.00
62708;BME280;48769;51.624;5.886;2023-04-02T04:23:30;101375.75;;;5.61;100.00
62708;BME280;48769;51.624;5.886;2023-04-02T04:26:05;101377.56;;;5.59;100.00
62708;BME280;48769;51.624;5.886;2023-04-02T04:28:42;101378.75;;;5.44;100.00
62708;BME280;48769;51.624;5.886;2023-04-02T04:31:21;101385.94;;;5.34;100.00
62708;BME280;48769;51.624;5.886;2023-04-02T04:33:52;101385.09;;;5.32;100.00
62708;BME280;48769;51.624;5.886;2023-04-02T04:36:41;101397.38;;;5.30;100.00
62708;BME280;48769;51.624;5.886;2023-04-02T04:39:16;101399.22;;;5.25;100.00
62708;BME280;48769;51.624;5.886;2023-04-02T04:41:46;101408.03;;;5.21;100.00
62708;BME280;48769;51.624;5.886;2023-04-02T04:44:30;101407.19;;;5.21;100.00
62708;BME280;48769;51.624;5.886;2023-04-02T04:47:14;101418.59;;;5.16;100.00
62708;BME280;48769;51.624;5.886;2023-04-02T04:50:52;101420.25;;;5.22;100.00
62708;BME280;48769;51.624;5.886;2023-04-02T04:53:04;101429.00;;;5.21;100.00
62708;BME280;48769;51.624;5.886;2023-04-02T04:55:36;101435.97;;;5.22;100.00
62708;BME280;48769;51.624;5.886;2023-04-02T04:58:21;101448.25;;;5.20;100.00
62708;BME280;48769;51.624;5.886;2023-04-02T05:00:59;101445.69;;;5.17;100.00
62708;BME280;48769;51.624;5.886;2023-04-02T05:03:43;101451.78;;;5.16;100.00
62708;BME280;48769;51.624;5.886;2023-04-02T05:06:31;101456.97;;;5.19;100.00
62708;BME280;48769;51.624;5.886;2023-04-02T05:09:02;101465.66;;;5.21;100.00
62708;BME280;48769;51.624;5.886;2023-04-02T05:11:44;101476.16;;;5.20;100.00
62708;BME280;48769;51.624;5.886;2023-04-02T05:14:32;101480.59;;;5.16;100.00
62708;BME280;48769;51.624;5.886;2023-04-02T05:17:06;101477.22;;;5.11;100.00
62708;BME280;48769;51.624;5.886;2023-04-02T05:19:42;101487.66;;;5.12;100.00
62708;BME280;48769;51.624;5.886;2023-04-02T05:22:24;101499.03;;;5.10;100.00
62708;BME280;48769;51.624;5.886;2023-04-02T05:25:15;101493.03;;;5.05;100.00
62708;BME280;48769;51.624;5.886;2023-04-02T05:33:28;101503.63;;;4.97;100.00
62708;BME280;48769;51.624;5.886;2023-04-02T05:36:01;101519.50;;;4.89;100.00
62708;BME280;48769;51.624;5.886;2023-04-02T05:38:30;101522.00;;;4.96;100.00
62708;BME280;48769;51.624;5.886;2023-04-02T05:41:03;101528.16;;;4.93;100.00
62708;BME280;48769;51.624;5.886;2023-04-02T05:43:32;101538.53;;;4.99;100.00
62708;BME280;48769;51.624;5.886;2023-04-02T05:46:02;101535.16;;;4.92;100.00
62708;BME280;48769;51.624;5.886;2023-04-02T05:48:36;101543.00;;;4.92;100.00
62708;BME280;48769;51.624;5.886;2023-04-02T05:51:06;101548.13;;;4.99;100.00
62708;BME280;48769;51.624;5.886;2023-04-02T05:53:35;101548.13;;;4.99;100.00
62708;BME280;48769;51.624;5.886;2023-04-02T05:56:09;101556.09;;;4.92;100.00
62708;BME280;48769;51.624;5.886;2023-04-02T05:58:50;101570.91;;;4.93;100.00
62708;BME280;48769;51.624;5.886;2023-04-02T06:01:39;101563.94;;;4.92;100.00
62708;BME280;48769;51.624;5.886;2023-04-02T06:12:38;101585.06;;;4.80;100.00
62708;BME280;48769;51.624;5.886;2023-04-02T06:15:18;101590.31;;;4.80;100.00
62708;BME280;48769;51.624;5.886;2023-04-02T06:18:22;101600.88;;;4.74;100.00
62708;BME280;48769;51.624;5.886;2023-04-02T06:20:48;101606.13;;;4.74;100.00
62708;BME280;48769;51.624;5.886;2023-04-02T06:26:04;101620.13;;;4.70;100.00
62708;BME280;48769;51.624;5.886;2023-04-02T06:28:47;101627.06;;;4.74;100.00
62708;BME280;48769;51.624;5.886;2023-04-02T06:31:26;101638.28;;;4.82;100.00
62708;BME280;48769;51.624;5.886;2023-04-02T06:33:53;101644.25;;;4.92;100.00
62708;BME280;48769;51.624;5.886;2023-04-02T06:36:22;101654.00;;;4.81;100.00
62708;BME280;48769;51.624;5.886;2023-04-02T06:38:48;101655.78;;;4.79;100.00
62708;BME280;48769;51.624;5.886;2023-04-02T06:41:22;101661.94;;;4.76;100.00
62708;BME280;48769;51.624;5.886;2023-04-02T06:46:35;101674.19;;;4.71;100.00
62708;BME280;48769;51.624;5.886;2023-04-02T06:49:13;101672.53;;;4.68;100.00
62708;BME280;48769;51.624;5.886;2023-04-02T06:51:41;101679.47;;;4.69;100.00
62708;BME280;48769;51.624;5.886;2023-04-02T06:54:15;101684.88;;;4.59;100.00
62708;BME280;48769;51.624;5.886;2023-04-02T06:56:45;101686.50;;;4.64;100.00
62708;BME280;48769;51.624;5.886;2023-04-02T06:59:12;101690.09;;;4.59;100.00
62708;BME280;48769;51.624;5.886;2023-04-02T07:01:51;101711.00;;;4.62;100.00
62708;BME280;48769;51.624;5.886;2023-04-02T07:04:18;101712.75;;;4.60;100.00
62708;BME280;48769;51.624;5.886;2023-04-02T07:06:44;101718.00;;;4.60;100.00
62708;BME280;48769;51.624;5.886;2023-04-02T07:09:10;101723.28;;;4.54;100.00
62708;BME280;48769;51.624;5.886;2023-04-02T07:11:35;101729.31;;;4.62;100.00
62708;BME280;48769;51.624;5.886;2023-04-02T07:14:01;101736.16;;;4.71;100.00
62708;BME280;48769;51.624;5.886;2023-04-02T07:16:28;101743.91;;;4.80;100.00
62708;BME280;48769;51.624;5.886;2023-04-02T07:18:55;101745.63;;;4.82;100.00
62708;BME280;48769;51.624;5.886;2023-04-02T07:21:23;101754.38;;;4.81;100.00
62708;BME280;48769;51.624;5.886;2023-04-02T07:23:49;101760.34;;;4.89;100.00
62708;BME280;48769;51.624;5.886;2023-04-02T07:26:17;101755.91;;;4.96;100.00
62708;BME280;48769;51.624;5.886;2023-04-02T07:28:43;101762.09;;;4.87;100.00
62708;BME280;48769;51.624;5.886;2023-04-02T07:31:15;101766.59;;;4.79;100.00
62708;BME280;48769;51.624;5.886;2023-04-02T07:33:41;101756.13;;;4.79;100.00
62708;BME280;48769;51.624;5.886;2023-04-02T07:36:12;101774.56;;;4.70;100.00
62708;BME280;48769;51.624;5.886;2023-04-02T07:38:37;101777.09;;;4.76;100.00
62708;BME280;48769;51.624;5.886;2023-04-02T07:41:06;101778.88;;;4.74;100.00
62708;BME280;48769;51.624;5.886;2023-04-02T07:43:32;101780.63;;;4.74;100.00
62708;BME280;48769;51.624;5.886;2023-04-02T07:45:57;101782.19;;;4.88;100.00
62708;BME280;48769;51.624;5.886;2023-04-02T07:48:22;101788.81;;;5.17;100.00
62708;BME280;48769;51.624;5.886;2023-04-02T07:50:47;101790.25;;;5.36;100.00
62708;BME280;48769;51.624;5.886;2023-04-02T07:53:34;101785.19;;;5.24;100.00
62708;BME280;48769;51.624;5.886;2023-04-02T07:56:02;101802.69;;;5.22;100.00
62708;BME280;48769;51.624;5.886;2023-04-02T07:58:29;101807.19;;;5.12;100.00
62708;BME280;48769;51.624;5.886;2023-04-02T08:00:54;101809.88;;;5.08;100.00
62708;BME280;48769;51.624;5.886;2023-04-02T08:03:20;101810.69;;;5.11;100.00
62708;BME280;48769;51.624;5.886;2023-04-02T08:05:53;101819.50;;;5.06;100.00
62708;BME280;48769;51.624;5.886;2023-04-02T08:08:19;101815.25;;;4.96;100.00
62708;BME280;48769;51.624;5.886;2023-04-02T08:10:45;101823.03;;;5.00;100.00
62708;BME280;48769;51.624;5.886;2023-04-02T08:13:15;101831.59;;;5.14;100.00
62708;BME280;48769;51.624;5.886;2023-04-02T08:15:41;101841.16;;;5.20;100.00
62708;BME280;48769;51.624;5.886;2023-04-02T08:18:08;101844.50;;;5.28;100.00
62708;BME280;48769;51.624;5.886;2023-04-02T08:20:33;101850.72;;;5.21;100.00
62708;BME280;48769;51.624;5.886;2023-04-02T08:22:59;101855.31;;;5.04;100.00
62708;BME280;48769;51.624;5.886;2023-04-02T08:25:25;101855.44;;;4.95;100.00
62708;BME280;48769;51.624;5.886;2023-04-02T08:27:50;101864.31;;;4.81;100.00
62708;BME280;48769;51.624;5.886;2023-04-02T08:30:16;101866.00;;;4.85;100.00
62708;BME280;48769;51.624;5.886;2023-04-02T08:32:42;101878.22;;;4.83;100.00
62708;BME280;48769;51.624;5.886;2023-04-02T08:35:09;101884.44;;;4.76;100.00
62708;BME280;48769;51.624;5.886;2023-04-02T08:37:36;101892.22;;;4.82;100.00
62708;BME280;48769;51.624;5.886;2023-04-02T08:40:01;101891.34;;;4.82;100.00
62708;BME280;48769;51.624;5.886;2023-04-02T08:42:28;101892.09;;;4.95;100.00
62708;BME280;48769;51.624;5.886;2023-04-02T08:47:43;101900.81;;;4.93;100.00
62708;BME280;48769;51.624;5.886;2023-04-02T08:50:20;101909.50;;;4.97;100.00
62708;BME280;48769;51.624;5.886;2023-04-02T08:52:46;101918.25;;;4.98;100.00
62708;BME280;48769;51.624;5.886;2023-04-02T08:55:18;101922.56;;;5.00;100.00
62708;BME280;48769;51.624;5.886;2023-04-02T09:03:07;101954.97;;;4.91;100.00
62708;BME280;48769;51.624;5.886;2023-04-02T09:05:38;101951.31;;;5.05;100.00
62708;BME280;48769;51.624;5.886;2023-04-02T09:08:15;101954.84;;;5.04;100.00
62708;BME280;48769;51.624;5.886;2023-04-02T09:10:50;101951.28;;;5.08;100.00
62708;BME280;48769;51.624;5.886;2023-04-02T09:13:22;101960.16;;;4.95;100.00
62708;BME280;48769;51.624;5.886;2023-04-02T09:15:52;101960.78;;;5.16;100.00
62708;BME280;48769;51.624;5.886;2023-04-02T09:18:20;101968.66;;;5.15;100.00
62708;BME280;48769;51.624;5.886;2023-04-02T09:20:46;101971.94;;;5.35;100.00
62708;BME280;48769;51.624;5.886;2023-04-02T09:23:19;101972.75;;;5.39;100.00
62708;BME280;48769;51.624;5.886;2023-04-02T09:25:49;101977.13;;;5.38;100.00
62708;BME280;48769;51.624;5.886;2023-04-02T09:28:15;101977.19;;;5.32;100.00
62708;BME280;48769;51.624;5.886;2023-04-02T09:30:59;101985.84;;;5.41;100.00
62708;BME280;48769;51.624;5.886;2023-04-02T09:33:43;101986.56;;;5.53;100.00
62708;BME280;48769;51.624;5.886;2023-04-02T09:36:18;101979.31;;;5.75;100.00
62708;BME280;48769;51.624;5.886;2023-04-02T09:39:17;101992.53;;;5.65;100.00
62708;BME280;48769;51.624;5.886;2023-04-02T09:41:44;102000.31;;;5.72;100.00
62708;BME280;48769;51.624;5.886;2023-04-02T09:44:24;102003.13;;;5.57;100.00
62708;BME280;48769;51.624;5.886;2023-04-02T09:49:22;102014.53;;;5.53;100.00
62708;BME280;48769;51.624;5.886;2023-04-02T09:52:27;102017.25;;;5.44;100.00
62708;BME280;48769;51.624;5.886;2023-04-02T09:57:44;102040.81;;;5.47;100.00
62708;BME280;48769;51.624;5.886;2023-04-02T10:02:39;102031.84;;;5.65;100.00
62708;BME280;48769;51.624;5.886;2023-04-02T10:05:10;102049.31;;;5.67;100.00
62708;BME280;48769;51.624;5.886;2023-04-02T10:07:46;102056.28;;;5.70;100.00
62708;BME280;48769;51.624;5.886;2023-04-02T10:15:28;102064.38;;;5.48;100.00
62708;BME280;48769;51.624;5.886;2023-04-02T10:18:20;102072.00;;;5.68;100.00
62708;BME280;48769;51.624;5.886;2023-04-02T10:20:50;102072.78;;;5.79;100.00
62708;BME280;48769;51.624;5.886;2023-04-02T10:23:17;102081.44;;;5.84;100.00
62708;BME280;48769;51.624;5.886;2023-04-02T10:31:24;102081.50;;;5.78;100.00
62708;BME280;48769;51.624;5.886;2023-04-02T10:33:59;102095.47;;;5.80;100.00
62708;BME280;48769;51.624;5.886;2023-04-02T10:36:55;102098.09;;;5.80;100.00
62708;BME280;48769;51.624;5.886;2023-04-02T10:42:24;102099.75;;;5.89;100.00
62708;BME280;48769;51.624;5.886;2023-04-02T10:44:54;102107.63;;;5.88;100.00
62708;BME280;48769;51.624;5.886;2023-04-02T10:47:47;102107.59;;;5.91;100.00
62708;BME280;48769;51.624;5.886;2023-04-02T10:50:27;102112.66;;;6.09;100.00
62708;BME280;48769;51.624;5.886;2023-04-02T10:55:25;102103.28;;;6.53;100.00
62708;BME280;48769;51.624;5.886;2023-04-02T10:57:56;102103.78;;;6.79;100.00
62708;BME280;48769;51.624;5.886;2023-04-02T11:00:26;102099.22;;;6.91;100.00
62708;BME280;48769;51.624;5.886;2023-04-02T11:02:56;102100.13;;;6.88;100.00
62708;BME280;48769;51.624;5.886;2023-04-02T11:05:33;102108.97;;;6.84;100.00
62708;BME280;48769;51.624;5.886;2023-04-02T11:11:06;102122.19;;;6.79;100.00
62708;BME280;48769;51.624;5.886;2023-04-02T11:13:57;102129.19;;;6.77;100.00
62708;BME280;48769;51.624;5.886;2023-04-02T11:16:24;102133.75;;;6.65;100.00
62708;BME280;48769;51.624;5.886;2023-04-02T11:29:30;102138.75;;;6.82;100.00
62708;BME280;48769;51.624;5.886;2023-04-02T11:37:38;102154.06;;;6.53;100.00
62708;BME280;48769;51.624;5.886;2023-04-02T11:42:38;102160.22;;;6.51;100.00
62708;BME280;48769;51.624;5.886;2023-04-02T11:50:36;102183.25;;;6.94;100.00
62708;BME280;48769;51.624;5.886;2023-04-02T11:53:04;102190.09;;;7.04;100.00
62708;BME280;48769;51.624;5.886;2023-04-02T11:55:44;102191.88;;;7.02;100.00
62708;BME280;48769;51.624;5.886;2023-04-02T11:58:41;102187.59;;;6.96;100.00
62708;BME280;48769;51.624;5.886;2023-04-02T12:04:06;102198.91;;;7.00;100.00
62708;BME280;48769;51.624;5.886;2023-04-02T12:06:59;102208.47;;;7.04;100.00
62708;BME280;48769;51.624;5.886;2023-04-02T12:09:50;102210.50;;;6.87;100.00
62708;BME280;48769;51.624;5.886;2023-04-02T12:14:50;102221.94;;;6.83;100.00
62708;BME280;48769;51.624;5.886;2023-04-02T12:17:38;102218.38;;;6.87;100.00
62708;BME280;48769;51.624;5.886;2023-04-02T12:22:37;102225.72;;;7.23;100.00
62708;BME280;48769;51.624;5.886;2023-04-02T12:30:35;102214.50;;;8.58;100.00
62708;BME280;48769;51.624;5.886;2023-04-02T12:35:50;102236.28;;;8.23;100.00
62708;BME280;48769;51.624;5.886;2023-04-02T12:38:20;102230.19;;;8.19;100.00
62708;BME280;48769;51.624;5.886;2023-04-02T12:40:53;102234.31;;;8.32;100.00
62708;BME280;48769;51.624;5.886;2023-04-02T12:43:26;102245.03;;;8.22;100.00
62708;BME280;48769;51.624;5.886;2023-04-02T12:45:58;102237.25;;;8.15;100.00
62708;BME280;48769;51.624;5.886;2023-04-02T12:48:24;102237.31;;;8.12;100.00
62708;BME280;48769;51.624;5.886;2023-04-02T12:50:51;102231.13;;;8.16;100.00
62708;BME280;48769;51.624;5.886;2023-04-02T12:53:26;102229.13;;;8.29;100.00
62708;BME280;48769;51.624;5.886;2023-04-02T12:55:53;102222.56;;;8.52;100.00
62708;BME280;48769;51.624;5.886;2023-04-02T12:59:17;102233.84;;;8.57;100.00
62708;BME280;48769;51.624;5.886;2023-04-02T13:01:15;102224.22;;;8.56;100.00
62708;BME280;48769;51.624;5.886;2023-04-02T13:03:43;102228.44;;;8.64;100.00
62708;BME280;48769;51.624;5.886;2023-04-02T13:06:19;102232.72;;;8.69;100.00
62708;BME280;48769;51.624;5.886;2023-04-02T13:08:46;102236.84;;;8.37;100.00
62708;BME280;48769;51.624;5.886;2023-04-02T13:11:12;102223.59;;;8.85;100.00
62708;BME280;48769;51.624;5.886;2023-04-02T13:13:38;102223.66;;;9.56;100.00
62708;BME280;48769;51.624;5.886;2023-04-02T13:18:31;102226.09;;;10.61;100.00
62708;BME280;48769;51.624;5.886;2023-04-02T13:23:35;102210.47;;;10.83;100.00
62708;BME280;48769;51.624;5.886;2023-04-02T13:26:08;102204.69;;;11.26;100.00
62708;BME280;48769;51.624;5.886;2023-04-02T13:28:35;102197.44;;;12.09;100.00
62708;BME280;48769;51.624;5.886;2023-04-02T13:31:00;102189.59;;;12.99;100.00
62708;BME280;48769;51.624;5.886;2023-04-02T13:33:26;102193.06;;;13.45;100.00
62708;BME280;48769;51.624;5.886;2023-04-02T13:35:51;102191.59;;;13.38;96.65
62708;BME280;48769;51.624;5.886;2023-04-02T13:38:16;102183.19;;;13.69;95.58
62708;BME280;48769;51.624;5.886;2023-04-02T13:40:42;102193.53;;;12.67;88.02
62708;BME280;48769;51.624;5.886;2023-04-02T13:43:14;102192.00;;;13.05;86.62
62708;BME280;48769;51.624;5.886;2023-04-02T13:45:41;102195.56;;;13.27;78.00
62708;BME280;48769;51.624;5.886;2023-04-02T13:48:13;102185.88;;;13.26;73.88
62708;BME280;48769;51.624;5.886;2023-04-02T13:50:40;102190.06;;;13.10;66.97
62708;BME280;48769;51.624;5.886;2023-04-02T13:53:07;102190.91;;;13.75;70.36
62708;BME280;48769;51.624;5.886;2023-04-02T13:55:38;102186.28;;;13.99;61.89
62708;BME280;48769;51.624;5.886;2023-04-02T13:58:04;102187.44;;;13.73;59.09
62708;BME280;48769;51.624;5.886;2023-04-02T14:00:30;102184.56;;;13.77;58.51
62708;BME280;48769;51.624;5.886;2023-04-02T14:03:04;102193.47;;;13.97;56.88
62708;BME280;48769;51.624;5.886;2023-04-02T14:08:25;102196.41;;;13.70;53.78
62708;BME280;48769;51.624;5.886;2023-04-02T14:16:46;102212.59;;;12.76;55.95
62708;BME280;48769;51.624;5.886;2023-04-02T14:30:26;102235.75;;;11.48;58.79
62708;BME280;48769;51.624;5.886;2023-04-02T14:35:46;102247.44;;;10.84;59.76
62708;BME280;48769;51.624;5.886;2023-04-02T14:38:23;102244.06;;;10.79;60.48
62708;BME280;48769;51.624;5.886;2023-04-02T14:43:57;102251.53;;;10.65;63.00
62708;BME280;48769;51.624;5.886;2023-04-02T14:46:25;102250.50;;;10.69;63.64
62708;BME280;48769;51.624;5.886;2023-04-02T14:48:56;102260.38;;;10.64;63.30
62708;BME280;48769;51.624;5.886;2023-04-02T14:51:48;102269.41;;;10.57;67.48
62708;BME280;48769;51.624;5.886;2023-04-02T14:57:35;102266.00;;;10.19;65.13
62708;BME280;48769;51.624;5.886;2023-04-02T15:00:34;102263.75;;;10.05;66.65
62708;BME280;48769;51.624;5.886;2023-04-02T15:03:24;102262.41;;;9.89;66.05
62708;BME280;48769;51.624;5.886;2023-04-02T15:05:59;102257.84;;;9.95;66.86
62708;BME280;48769;51.624;5.886;2023-04-02T15:08:29;102265.47;;;10.06;66.58
62708;BME280;48769;51.624;5.886;2023-04-02T15:11:01;102270.56;;;9.79;66.87
62708;BME280;48769;51.624;5.886;2023-04-02T15:13:50;102270.50;;;9.81;65.63
62708;BME280;48769;51.624;5.886;2023-04-02T15:16:20;102280.66;;;9.98;67.66
62708;BME280;48769;51.624;5.886;2023-04-02T15:18:51;102271.25;;;9.86;65.60
62708;BME280;48769;51.624;5.886;2023-04-02T15:21:26;102282.75;;;9.85;65.64
62708;BME280;48769;51.624;5.886;2023-04-02T15:24:25;102282.59;;;9.91;65.21
62708;BME280;48769;51.624;5.886;2023-04-02T15:27:25;102283.53;;;9.89;64.71
62708;BME280;48769;51.624;5.886;2023-04-02T15:30:08;102284.47;;;9.86;64.80
62708;BME280;48769;51.624;5.886;2023-04-02T15:32:41;102289.81;;;9.83;65.54
62708;BME280;48769;51.624;5.886;2023-04-02T15:35:42;102282.09;;;9.75;64.90
62708;BME280;48769;51.624;5.886;2023-04-02T15:38:20;102295.16;;;9.81;65.31
62708;BME280;48769;51.624;5.886;2023-04-02T15:41:14;102289.25;;;9.70;66.11
62708;BME280;48769;51.624;5.886;2023-04-02T15:44:12;102291.75;;;9.75;66.32
62708;BME280;48769;51.624;5.886;2023-04-02T15:52:51;102308.13;;;9.53;64.73
62708;BME280;48769;51.624;5.886;2023-04-02T15:55:24;102312.50;;;9.54;65.09
62708;BME280;48769;51.624;5.886;2023-04-02T15:58:20;102308.09;;;9.55;65.98
62708;BME280;48769;51.624;5.886;2023-04-02T16:03:52;102318.84;;;9.47;65.90
62708;BME280;48769;51.624;5.886;2023-04-02T16:06:26;102319.59;;;9.52;67.00
62708;BME280;48769;51.624;5.886;2023-04-02T16:09:05;102310.78;;;9.52;66.64
62708;BME280;48769;51.624;5.886;2023-04-02T16:11:31;102326.69;;;9.49;65.18
62708;BME280;48769;51.624;5.886;2023-04-02T16:14:25;102321.53;;;9.44;63.59
62708;BME280;48769;51.624;5.886;2023-04-02T16:16:55;102329.66;;;9.35;64.32
62708;BME280;48769;51.624;5.886;2023-04-02T16:19:45;102338.69;;;9.25;65.83
62708;BME280;48769;51.624;5.886;2023-04-02T16:22:23;102357.00;;;9.31;67.25
62708;BME280;48769;51.624;5.886;2023-04-02T16:24:59;102352.78;;;9.24;67.35
62708;BME280;48769;51.624;5.886;2023-04-02T16:27:34;102350.16;;;9.22;67.35
62708;BME280;48769;51.624;5.886;2023-04-02T16:33:02;102362.78;;;9.08;68.92